Time;durP1;ratioP1;P1;durP2;ratioP2;P2;SDS_P1;SDS_P2;PMS_P1;PMS_P2;Temp;Humidity;BMP_temperature;BMP_pressure;BME280_temperature;BME280_humidity;BME280_pressure;Samples;Min_cycle;Max_cycle;Signal;HPM_P1;HPM_P2
2023/10/23 00:00:55;;;;;;;0.87;0.87;;;;;7.00;95753.00;;;;5041861;28;20200;-61
2023/10/23 00:03:22;;;;;;;1.20;1.10;;;;;7.00;95756.00;;;;5060277;28;20195;-61
2023/10/23 00:05:50;;;;;;;0.93;0.93;;;;;7.10;95758.00;;;;5059586;28;20216;-61
2023/10/23 00:08:17;;;;;;;0.90;0.90;;;;;7.10;95758.00;;;;5059936;28;20656;-61
2023/10/23 00:10:46;;;;;;;3.40;1.53;;;;;7.20;95755.00;;;;5041599;28;20562;-61
2023/10/23 00:13:13;;;;;;;1.47;1.37;;;;;7.20;95758.00;;;;5059474;28;20670;-61
2023/10/23 00:15:42;;;;;;;0.90;0.90;;;;;7.20;95765.00;;;;5060075;28;20195;-61
2023/10/23 00:18:09;;;;;;;2.10;1.97;;;;;7.10;95770.00;;;;5041674;28;20269;-61
2023/10/23 00:20:37;;;;;;;1.53;1.43;;;;;7.00;95772.00;;;;5059783;28;20193;-61
2023/10/23 00:23:04;;;;;;;1.43;1.33;;;;;7.00;95762.00;;;;5059387;28;20239;-61
2023/10/23 00:25:31;;;;;;;0.90;0.90;;;;;7.00;95775.00;;;;5041502;28;20227;-61
2023/10/23 00:28:00;;;;;;;1.20;1.03;;;;;6.90;95767.00;;;;5059313;28;20196;-60
2023/10/23 00:30:32;;;;;;;1.13;1.13;;;;;6.80;95776.00;;;;5059174;28;20196;-61
2023/10/23 00:32:59;;;;;;;2.00;1.53;;;;;6.80;95768.00;;;;5059026;28;20235;-60
2023/10/23 00:35:26;;;;;;;0.90;0.90;;;;;6.90;95780.00;;;;5057637;28;20188;-60
2023/10/23 00:37:54;;;;;;;19.03;1.10;;;;;7.00;95778.00;;;;5040129;28;20322;-60
2023/10/23 00:40:21;;;;;;;1.33;1.13;;;;;7.10;95765.00;;;;5058187;28;20191;-60
2023/10/23 00:42:48;;;;;;;1.40;1.30;;;;;7.00;95772.00;;;;5057797;28;20214;-60
2023/10/23 00:45:17;;;;;;;1.20;1.10;;;;;7.00;95769.00;;;;5057588;28;20228;-60
2023/10/23 00:47:45;;;;;;;1.13;1.03;;;;;7.00;95774.00;;;;5040227;28;20235;-61
2023/10/23 00:50:14;;;;;;;1.67;1.57;;;;;6.70;95783.00;;;;5057121;28;20666;-61
2023/10/23 00:52:42;;;;;;;12.10;1.10;;;;;6.60;95772.00;;;;5057462;28;20215;-61
2023/10/23 00:55:09;;;;;;;0.83;0.83;;;;;6.50;95766.00;;;;5058040;28;20195;-61
2023/10/23 00:57:38;;;;;;;0.80;0.80;;;;;6.60;95769.00;;;;5058271;28;20198;-61
2023/10/23 01:00:07;;;;;;;1.70;1.63;;;;;6.60;95765.00;;;;5058005;28;20199;-61
2023/10/23 01:02:37;;;;;;;0.80;0.80;;;;;6.50;95753.00;;;;5058251;28;20226;-61
2023/10/23 01:05:05;;;;;;;1.27;1.10;;;;;6.60;95747.00;;;;5059002;28;20621;-61
2023/10/23 01:07:33;;;;;;;0.90;0.90;;;;;6.60;95747.00;;;;5040658;28;20260;-61
2023/10/23 01:10:00;;;;;;;2.43;1.50;;;;;6.50;95747.00;;;;5058785;28;20195;-61
2023/10/23 01:12:27;;;;;;;0.87;0.87;;;;;6.50;95743.00;;;;5058372;28;20585;-61
2023/10/23 01:14:55;;;;;;;0.80;0.80;;;;;6.40;95753.00;;;;5058737;28;20552;-61
2023/10/23 01:17:22;;;;;;;1.43;1.33;;;;;6.30;95750.00;;;;5058709;28;20663;-62
2023/10/23 01:19:51;;;;;;;0.90;0.90;;;;;6.30;95751.00;;;;5058291;28;20263;-61
2023/10/23 01:22:18;;;;;;;1.40;1.30;;;;;6.30;95747.00;;;;5058824;28;20212;-61
2023/10/23 01:24:48;;;;;;;0.93;0.93;;;;;6.20;95758.00;;;;5058496;28;20218;-61
2023/10/23 01:27:17;;;;;;;1.33;1.33;;;;;6.30;95762.00;;;;5058777;28;20557;-61
2023/10/23 01:29:44;;;;;;;0.80;0.80;;;;;6.40;95761.00;;;;5058961;28;20199;-61
2023/10/23 01:32:12;;;;;;;1.77;1.57;;;;;6.40;95761.00;;;;5040220;28;20234;-61
2023/10/23 01:34:39;;;;;;;0.83;0.83;;;;;6.40;95764.00;;;;5058000;28;20184;-61
2023/10/23 01:37:06;;;;;;;1.33;1.33;;;;;6.50;95764.00;;;;5058546;28;20198;-61
2023/10/23 01:39:34;;;;;;;1.00;1.00;;;;;6.50;95762.00;;;;5058645;28;20195;-61
2023/10/23 01:42:01;;;;;;;1.33;1.33;;;;;6.40;95760.00;;;;5058203;28;20212;-61
2023/10/23 01:44:30;;;;;;;1.80;1.30;;;;;6.40;95754.00;;;;5058006;28;20218;-61
2023/10/23 01:46:57;;;;;;;2.07;1.23;;;;;6.40;95757.00;;;;5056223;28;20190;-60
2023/10/23 01:49:24;;;;;;;1.83;1.33;;;;;6.30;95753.00;;;;5056774;28;20196;-60
2023/10/23 01:51:52;;;;;;;1.80;1.70;;;;;6.40;95751.00;;;;5056471;28;20219;-60
2023/10/23 01:54:19;;;;;;;1.40;1.37;;;;;6.40;95745.00;;;;5056436;28;20692;-60
2023/10/23 01:56:47;;;;;;;1.40;1.30;;;;;6.20;95755.00;;;;5056586;28;20200;-60
2023/10/23 01:59:14;;;;;;;3.77;1.33;;;;;6.20;95755.00;;;;5056608;28;20203;-60
2023/10/23 02:01:43;;;;;;;0.60;0.60;;;;;6.10;95753.00;;;;5057841;28;20608;-60
2023/10/23 02:04:10;;;;;;;0.90;0.90;;;;;6.20;95744.00;;;;5057983;28;20195;-60
2023/10/23 02:06:38;;;;;;;0.70;0.70;;;;;6.20;95736.00;;;;5058006;28;20202;-62
2023/10/23 02:09:07;;;;;;;2.27;1.23;;;;;6.20;95740.00;;;;5056876;28;20190;-61
2023/10/23 02:11:35;;;;;;;1.30;1.20;;;;;6.00;95749.00;;;;5057436;28;20245;-61
2023/10/23 02:14:03;;;;;;;0.83;0.83;;;;;6.00;95743.00;;;;5039705;28;20200;-61
2023/10/23 02:16:30;;;;;;;0.97;0.97;;;;;5.90;95739.00;;;;5057206;28;20202;-61
2023/10/23 02:18:59;;;;;;;1.27;1.27;;;;;6.00;95750.00;;;;5057537;28;20213;-61
2023/10/23 02:21:26;;;;;;;1.37;1.37;;;;;5.90;95744.00;;;;5057310;28;20219;-61
2023/10/23 02:23:54;;;;;;;0.93;0.93;;;;;5.80;95738.00;;;;5057414;28;20287;-61
2023/10/23 02:26:21;;;;;;;1.13;1.13;;;;;5.90;95741.00;;;;5058077;28;20226;-61
2023/10/23 02:28:49;;;;;;;1.47;1.37;;;;;5.80;95732.00;;;;5057600;28;20655;-61
2023/10/23 02:31:16;;;;;;;0.73;0.73;;;;;5.80;95733.00;;;;5057060;28;20219;-61
2023/10/23 02:33:44;;;;;;;0.67;0.67;;;;;5.70;95732.00;;;;5057291;28;20197;-61
2023/10/23 02:36:14;;;;;;;1.47;1.37;;;;;5.50;95741.00;;;;5057508;28;20199;-61
2023/10/23 02:38:42;;;;;;;0.80;0.80;;;;;5.40;95737.00;;;;5057920;28;20181;-61
2023/10/23 02:41:09;;;;;;;0.80;0.80;;;;;5.50;95744.00;;;;5057863;28;20209;-61
2023/10/23 02:43:37;;;;;;;0.97;0.97;;;;;5.40;95744.00;;;;5056931;28;20206;-61
2023/10/23 02:46:05;;;;;;;0.83;0.83;;;;;5.30;95743.00;;;;5057052;28;20219;-61
2023/10/23 02:48:33;;;;;;;0.60;0.60;;;;;5.40;95742.00;;;;5057339;28;20251;-61
2023/10/23 02:51:00;;;;;;;3.57;0.93;;;;;5.40;95749.00;;;;5057447;28;20614;-61
2023/10/23 02:53:29;;;;;;;0.73;0.73;;;;;5.30;95747.00;;;;5056853;28;20203;-61
2023/10/23 02:55:57;;;;;;;0.90;0.90;;;;;5.30;95746.00;;;;5056926;28;20186;-61
2023/10/23 02:58:24;;;;;;;0.77;0.77;;;;;5.30;95742.00;;;;5056797;28;20232;-62
2023/10/23 03:00:51;;;;;;;0.87;0.87;;;;;5.30;95736.00;;;;5038796;28;20204;-61
2023/10/23 03:03:19;;;;;;;0.83;0.83;;;;;5.30;95738.00;;;;5056693;28;20206;-61
2023/10/23 03:05:46;;;;;;;1.00;1.00;;;;;5.40;95741.00;;;;5056577;28;20239;-61
2023/10/23 03:08:14;;;;;;;1.00;1.00;;;;;5.30;95743.00;;;;5054628;28;20202;-61
2023/10/23 03:10:43;;;;;;;0.60;0.60;;;;;5.30;95743.00;;;;5055300;28;20253;-61
2023/10/23 03:13:10;;;;;;;1.70;0.80;;;;;5.30;95745.00;;;;5055927;28;20217;-61
2023/10/23 03:15:40;;;;;;;0.77;0.77;;;;;5.20;95733.00;;;;5055397;28;20203;-61
2023/10/23 03:18:08;;;;;;;0.70;0.70;;;;;5.20;95733.00;;;;5056777;28;20191;-61
2023/10/23 03:20:36;;;;;;;1.23;1.23;;;;;5.10;95730.00;;;;5056566;28;20242;-62
2023/10/23 03:23:04;;;;;;;1.00;1.00;;;;;5.00;95731.00;;;;5056533;28;20247;-61
2023/10/23 03:25:31;;;;;;;0.80;0.80;;;;;4.90;95728.00;;;;5056930;28;20224;-61
2023/10/23 03:28:00;;;;;;;0.80;0.80;;;;;4.90;95723.00;;;;5056677;28;20283;-61
2023/10/23 03:30:27;;;;;;;0.80;0.80;;;;;4.80;95721.00;;;;5056848;28;20202;-61
2023/10/23 03:32:54;;;;;;;0.80;0.80;;;;;4.70;95729.00;;;;5056382;28;20213;-61
2023/10/23 03:35:22;;;;;;;0.83;0.83;;;;;4.60;95723.00;;;;5056383;28;20189;-61
2023/10/23 03:37:49;;;;;;;0.50;0.50;;;;;4.50;95724.00;;;;5055965;28;20208;-61
2023/10/23 03:40:17;;;;;;;0.63;0.63;;;;;4.60;95731.00;;;;5056090;28;20627;-61
2023/10/23 03:42:44;;;;;;;1.10;1.00;;;;;4.60;95728.00;;;;5056559;28;20282;-61
2023/10/23 03:45:13;;;;;;;0.60;0.60;;;;;4.50;95731.00;;;;5056369;28;20220;-61
2023/10/23 03:47:40;;;;;;;0.50;0.50;;;;;4.60;95733.00;;;;5056596;28;20210;-61
2023/10/23 03:50:08;;;;;;;1.27;1.17;;;;;4.40;95727.00;;;;5056255;28;20195;-60
2023/10/23 03:52:36;;;;;;;0.70;0.70;;;;;4.40;95726.00;;;;5037622;28;20216;-60
2023/10/23 03:55:03;;;;;;;0.70;0.70;;;;;4.20;95732.00;;;;5056031;28;20192;-61
2023/10/23 03:57:31;;;;;;;0.93;0.93;;;;;4.40;95721.00;;;;5055394;28;20213;-60
2023/10/23 03:59:58;;;;;;;0.63;0.63;;;;;4.50;95718.00;;;;5055208;28;20558;-60
2023/10/23 04:02:27;;;;;;;1.13;1.13;;;;;4.50;95726.00;;;;5054679;28;20204;-60
2023/10/23 04:04:54;;;;;;;0.60;0.60;;;;;4.50;95722.00;;;;5055462;28;20213;-60
2023/10/23 04:07:21;;;;;;;0.70;0.70;;;;;4.60;95719.00;;;;5037198;28;20201;-60
2023/10/23 04:09:49;;;;;;;0.60;0.60;;;;;4.50;95706.00;;;;5054816;28;20208;-61
2023/10/23 04:12:16;;;;;;;0.70;0.70;;;;;4.50;95721.00;;;;5054027;28;20216;-61
2023/10/23 04:14:46;;;;;;;0.80;0.80;;;;;4.30;95729.00;;;;5054097;28;20202;-61
2023/10/23 04:17:14;;;;;;;0.70;0.70;;;;;4.40;95719.00;;;;5053567;28;20208;-60
2023/10/23 04:19:42;;;;;;;0.80;0.80;;;;;4.50;95715.00;;;;5053523;28;20192;-60
2023/10/23 04:22:10;;;;;;;0.67;0.67;;;;;4.50;95707.00;;;;5053453;28;20702;-60
2023/10/23 04:24:37;;;;;;;2.17;1.27;;;;;4.70;95706.00;;;;5053697;28;20191;-60
2023/10/23 04:27:05;;;;;;;1.60;1.50;;;;;5.00;95704.00;;;;5057356;28;20551;-60
2023/10/23 04:29:32;;;;;;;0.73;0.73;;;;;4.70;95702.00;;;;5040854;28;20197;-60
2023/10/23 04:31:59;;;;;;;0.90;0.90;;;;;4.50;95704.00;;;;5058264;28;20255;-60
2023/10/23 04:34:27;;;;;;;1.30;1.30;;;;;4.30;95705.00;;;;5057686;28;20192;-60
2023/10/23 04:36:56;;;;;;;1.47;1.37;;;;;4.20;95701.00;;;;5057743;28;20199;-60
2023/10/23 04:39:23;;;;;;;0.70;0.70;;;;;4.10;95698.00;;;;5058068;28;20192;-60
2023/10/23 04:41:50;;;;;;;0.60;0.60;;;;;4.10;95696.00;;;;5039320;28;20216;-60
2023/10/23 04:44:18;;;;;;;0.60;0.60;;;;;4.10;95691.00;;;;5039633;28;20565;-60
2023/10/23 04:46:46;;;;;;;0.60;0.60;;;;;4.10;95689.00;;;;5039316;28;20585;-61
2023/10/23 04:49:13;;;;;;;0.67;0.67;;;;;4.20;95697.00;;;;5057469;28;20252;-61
2023/10/23 04:51:40;;;;;;;1.07;1.07;;;;;4.00;95687.00;;;;5057567;28;20212;-60
2023/10/23 04:54:09;;;;;;;0.70;0.70;;;;;4.00;95678.00;;;;5039838;28;20199;-60
2023/10/23 04:56:36;;;;;;;0.60;0.60;;;;;4.00;95681.00;;;;5058284;28;20200;-60
2023/10/23 04:59:04;;;;;;;0.70;0.70;;;;;4.00;95673.00;;;;5057977;28;20203;-60
2023/10/23 05:01:31;;;;;;;0.60;0.60;;;;;4.00;95671.00;;;;5057833;28;20251;-60
2023/10/23 05:03:59;;;;;;;0.80;0.80;;;;;4.10;95669.00;;;;5057018;28;20192;-61
2023/10/23 05:06:27;;;;;;;0.60;0.60;;;;;4.00;95679.00;;;;5056824;28;20650;-61
2023/10/23 05:08:54;;;;;;;30.60;20.87;;;;;4.00;95672.00;;;;5056950;28;20210;-60
2023/10/23 05:11:23;;;;;;;3.73;3.43;;;;;3.70;95668.00;;;;5055960;28;20583;-60
2023/10/23 05:13:50;;;;;;;1.07;1.07;;;;;3.70;95661.00;;;;5055723;28;20195;-60
2023/10/23 05:16:18;;;;;;;4.03;1.00;;;;;3.90;95671.00;;;;5037664;28;20196;-60
2023/10/23 05:18:45;;;;;;;0.80;0.80;;;;;3.90;95653.00;;;;5056490;28;20302;-60
2023/10/23 05:21:13;;;;;;;0.83;0.83;;;;;3.70;95661.00;;;;5057496;28;20705;-60
2023/10/23 05:23:42;;;;;;;0.77;0.77;;;;;3.60;95662.00;;;;5058225;28;20203;-60
2023/10/23 05:26:11;;;;;;;0.90;0.90;;;;;3.70;95671.00;;;;5058207;28;20223;-61
2023/10/23 05:28:41;;;;;;;0.80;0.80;;;;;3.50;95670.00;;;;5057648;28;20258;-61
2023/10/23 05:31:09;;;;;;;0.63;0.63;;;;;3.50;95671.00;;;;5057844;28;20207;-61
2023/10/23 05:33:36;;;;;;;1.03;1.03;;;;;3.50;95684.00;;;;5039625;28;20209;-61
2023/10/23 05:36:04;;;;;;;0.80;0.80;;;;;3.50;95691.00;;;;5039910;28;20660;-61
2023/10/23 05:38:32;;;;;;;1.30;1.20;;;;;3.60;95697.00;;;;5057509;28;20199;-61
2023/10/23 05:41:00;;;;;;;0.60;0.60;;;;;3.60;95711.00;;;;5057551;28;20188;-60
2023/10/23 05:43:27;;;;;;;0.70;0.70;;;;;3.70;95696.00;;;;5057160;28;20203;-61
2023/10/23 05:45:57;;;;;;;0.80;0.80;;;;;3.80;95705.00;;;;5057137;28;20243;-61
2023/10/23 05:48:25;;;;;;;0.93;0.93;;;;;3.80;95701.00;;;;5039168;28;20208;-61
2023/10/23 05:50:59;;;;;;;0.67;0.67;;;;;3.90;95704.00;;;;5057110;28;20200;-61
2023/10/23 05:53:27;;;;;;;0.70;0.70;;;;;3.90;95702.00;;;;5038605;28;20298;-60
2023/10/23 05:55:55;;;;;;;1.47;1.20;;;;;3.80;95698.00;;;;5055957;28;20196;-60
2023/10/23 05:58:22;;;;;;;0.83;0.83;;;;;3.80;95689.00;;;;5057891;28;20199;-61
2023/10/23 06:00:49;;;;;;;1.63;1.53;;;;;3.80;95696.00;;;;5056476;28;20196;-60
2023/10/23 06:03:18;;;;;;;1.13;1.10;;;;;3.70;95701.00;;;;5055510;28;20552;-60
2023/10/23 06:05:45;;;;;;;1.10;1.10;;;;;3.60;95709.00;;;;5056653;28;20235;-61
2023/10/23 06:08:13;;;;;;;1.00;1.00;;;;;3.70;95701.00;;;;5057071;28;20198;-60
2023/10/23 06:10:44;;;;;;;0.73;0.73;;;;;3.80;95700.00;;;;5057385;28;20558;-60
2023/10/23 06:13:12;;;;;;;0.60;0.60;;;;;3.90;95700.00;;;;5056661;28;20215;-61
2023/10/23 06:15:39;;;;;;;0.70;0.70;;;;;3.90;95697.00;;;;5056020;28;20231;-61
2023/10/23 06:18:07;;;;;;;1.17;0.90;;;;;3.90;95696.00;;;;5038106;28;20219;-60
2023/10/23 06:20:36;;;;;;;0.80;0.80;;;;;3.60;95695.00;;;;5056268;28;20196;-61
2023/10/23 06:23:04;;;;;;;0.77;0.77;;;;;3.70;95691.00;;;;5037644;28;20216;-60
2023/10/23 06:25:32;;;;;;;0.67;0.67;;;;;3.60;95696.00;;;;5055306;28;20199;-60
2023/10/23 06:28:00;;;;;;;0.77;0.77;;;;;3.60;95701.00;;;;5038890;28;20196;-61
2023/10/23 06:30:27;;;;;;;1.43;1.23;;;;;3.70;95694.00;;;;5037144;28;20286;-61
2023/10/23 06:32:54;;;;;;;0.70;0.70;;;;;3.90;95687.00;;;;5055303;28;20273;-61
2023/10/23 06:35:22;;;;;;;1.00;1.00;;;;;4.00;95689.00;;;;5055123;28;20200;-61
2023/10/23 06:37:50;;;;;;;0.93;0.93;;;;;4.00;95691.00;;;;5055001;28;20208;-60
2023/10/23 06:40:18;;;;;;;1.47;1.37;;;;;4.10;95680.00;;;;5054977;28;20188;-60
2023/10/23 06:42:45;;;;;;;0.90;0.90;;;;;4.10;95679.00;;;;5055459;28;20220;-61
2023/10/23 06:45:13;;;;;;;1.13;1.13;;;;;4.20;95681.00;;;;5055608;28;20656;-61
2023/10/23 06:47:40;;;;;;;0.90;0.90;;;;;4.10;95679.00;;;;5051583;28;20216;-66
2023/10/23 06:50:10;;;;;;;0.77;0.77;;;;;4.00;95677.00;;;;5050948;28;20196;-67
2023/10/23 06:52:37;;;;;;;1.17;1.17;;;;;4.00;95675.00;;;;5052323;28;20278;-65
2023/10/23 06:55:07;;;;;;;0.67;0.67;;;;;4.10;95666.00;;;;5052894;28;20225;-61
2023/10/23 06:57:34;;;;;;;0.87;0.87;;;;;4.10;95678.00;;;;5052306;28;20275;-61
2023/10/23 07:00:02;;;;;;;0.60;0.60;;;;;4.00;95671.00;;;;5053214;28;20204;-61
2023/10/23 07:02:29;;;;;;;0.80;0.80;;;;;4.10;95672.00;;;;5052222;28;20211;-60
2023/10/23 07:04:57;;;;;;;0.60;0.60;;;;;4.10;95674.00;;;;5051911;28;20207;-60
2023/10/23 07:07:24;;;;;;;0.80;0.80;;;;;4.20;95676.00;;;;5052750;28;20683;-60
2023/10/23 07:09:53;;;;;;;0.83;0.83;;;;;4.30;95673.00;;;;5051841;28;20698;-60
2023/10/23 07:12:22;;;;;;;1.37;1.27;;;;;4.40;95671.00;;;;5053260;28;20212;-61
2023/10/23 07:14:49;;;;;;;0.87;0.87;;;;;4.50;95665.00;;;;5051926;28;20207;-61
2023/10/23 07:17:16;;;;;;;1.07;1.07;;;;;4.40;95674.00;;;;5052615;28;20651;-60
2023/10/23 07:19:44;;;;;;;0.80;0.80;;;;;4.50;95671.00;;;;5052070;28;20196;-61
2023/10/23 07:22:11;;;;;;;0.93;0.93;;;;;4.60;95671.00;;;;5052319;28;20222;-61
2023/10/23 07:24:39;;;;;;;1.23;1.00;;;;;4.70;95669.00;;;;5053940;28;20196;-62
2023/10/23 07:27:11;;;;;;;0.70;0.70;;;;;4.80;95659.00;;;;5052775;28;20205;-59
2023/10/23 07:29:40;;;;;;;0.90;0.90;;;;;4.90;95661.00;;;;5053328;28;20188;-60
2023/10/23 07:32:07;;;;;;;1.07;1.07;;;;;4.90;95659.00;;;;5053503;28;20220;-60
2023/10/23 07:34:34;;;;;;;0.70;0.70;;;;;5.10;95654.00;;;;5035146;28;20199;-60
2023/10/23 07:37:03;;;;;;;0.90;0.90;;;;;5.20;95657.00;;;;5053160;28;20200;-59
2023/10/23 07:39:30;;;;;;;0.70;0.70;;;;;5.40;95650.00;;;;5052842;28;20207;-60
2023/10/23 07:41:57;;;;;;;3.10;2.90;;;;;5.40;95646.00;;;;5053063;28;20714;-60
2023/10/23 07:44:25;;;;;;;3.47;2.23;;;;;5.50;95638.00;;;;5052719;28;20292;-60
2023/10/23 07:46:54;;;;;;;0.83;0.83;;;;;5.30;95646.00;;;;5053052;28;20230;-60
2023/10/23 07:49:21;;;;;;;2.13;0.93;;;;;5.20;95631.00;;;;5053263;28;20188;-60
2023/10/23 07:51:48;;;;;;;0.60;0.60;;;;;5.20;95631.00;;;;5053135;28;20222;-60
2023/10/23 07:54:18;;;;;;;1.17;1.00;;;;;5.40;95628.00;;;;5050639;28;20204;-60
2023/10/23 07:56:46;;;;;;;0.70;0.70;;;;;5.50;95628.00;;;;5052028;28;20657;-61
2023/10/23 07:59:13;;;;;;;0.70;0.70;;;;;5.50;95625.00;;;;5052527;28;20197;-61
2023/10/23 08:01:41;;;;;;;0.70;0.70;;;;;5.60;95629.00;;;;5054316;28;20215;-62
2023/10/23 08:04:09;;;;;;;0.70;0.70;;;;;5.50;95624.00;;;;5057129;28;20196;-61
2023/10/23 08:06:37;;;;;;;1.20;1.10;;;;;5.70;95628.00;;;;5060162;28;20248;-62
2023/10/23 08:09:07;;;;;;;0.80;0.80;;;;;5.80;95616.00;;;;5056347;28;20191;-61
2023/10/23 08:11:35;;;;;;;0.80;0.80;;;;;6.00;95617.00;;;;5055598;28;20216;-61
2023/10/23 08:14:02;;;;;;;0.83;0.83;;;;;6.20;95620.00;;;;5055282;28;20197;-61
2023/10/23 08:16:33;;;;;;;0.80;0.80;;;;;6.40;95622.00;;;;5055587;28;20228;-61
2023/10/23 08:19:00;;;;;;;0.70;0.70;;;;;6.50;95627.00;;;;5056013;28;20197;-61
2023/10/23 08:21:29;;;;;;;1.00;1.00;;;;;6.50;95630.00;;;;5055774;28;20238;-61
2023/10/23 08:23:57;;;;;;;6.07;5.47;;;;;6.80;95631.00;;;;5054835;28;20587;-62
2023/10/23 08:26:29;;;;;;;1.73;1.63;;;;;6.90;95622.00;;;;5056281;28;20685;-61
2023/10/23 08:28:56;;;;;;;1.63;1.53;;;;;7.20;95627.00;;;;5055018;28;20224;-61
2023/10/23 08:31:24;;;;;;;0.70;0.70;;;;;7.40;95630.00;;;;5037145;28;20285;-60
2023/10/23 08:33:51;;;;;;;0.60;0.60;;;;;7.60;95635.00;;;;5037185;28;20557;-61
2023/10/23 08:36:19;;;;;;;0.60;0.60;;;;;7.60;95641.00;;;;5054449;28;20206;-60
2023/10/23 08:38:48;;;;;;;0.93;0.93;;;;;7.50;95640.00;;;;5039165;28;20694;-61
2023/10/23 08:41:15;;;;;;;0.63;0.63;;;;;7.40;95633.00;;;;5040760;28;20223;-60
2023/10/23 08:43:43;;;;;;;0.77;0.77;;;;;7.50;95637.00;;;;5059180;28;20551;-61
2023/10/23 08:46:11;;;;;;;0.77;0.77;;;;;7.50;95633.00;;;;5059246;28;20219;-60
2023/10/23 08:48:38;;;;;;;0.57;0.57;;;;;7.50;95634.00;;;;5058045;28;20203;-60
2023/10/23 08:51:08;;;;;;;0.80;0.80;;;;;7.40;95630.00;;;;5058106;28;20199;-61
2023/10/23 08:53:44;;;;;;;1.33;1.23;;;;;7.30;95629.00;;;;5057451;28;20209;-60
2023/10/23 08:56:13;;;;;;;0.70;0.70;;;;;7.20;95627.00;;;;5054735;28;20248;-60
2023/10/23 08:58:43;;;;;;;0.90;0.90;;;;;7.30;95635.00;;;;5054075;28;20200;-61
2023/10/23 09:01:10;;;;;;;0.60;0.60;;;;;7.40;95626.00;;;;5054162;28;20246;-61
2023/10/23 09:03:38;;;;;;;0.80;0.80;;;;;7.50;95630.00;;;;5054172;28;20618;-62
2023/10/23 09:06:09;;;;;;;1.13;1.13;;;;;7.50;95607.00;;;;5055708;28;20206;-62
2023/10/23 09:08:37;;;;;;;1.03;1.03;;;;;7.40;95622.00;;;;5037800;28;20686;-60
2023/10/23 09:11:06;;;;;;;0.80;0.80;;;;;7.50;95626.00;;;;5055226;28;20203;-60
2023/10/23 09:13:39;;;;;;;0.80;0.80;;;;;7.60;95563.00;;;;5054853;28;20680;-61
2023/10/23 09:16:07;;;;;;;0.70;0.70;;;;;7.60;95618.00;;;;5056109;28;20204;-61
2023/10/23 09:18:44;;;;;;;0.73;0.73;;;;;7.70;95624.00;;;;5056006;28;20202;-61
2023/10/23 09:21:11;;;;;;;2.10;0.90;;;;;7.60;95626.00;;;;5056622;28;20310;-62
2023/10/23 09:23:51;;;;;;;0.83;0.83;;;;;7.70;95635.00;;;;5055432;28;20231;-61
2023/10/23 09:26:19;;;;;;;0.93;0.93;;;;;7.70;95634.00;;;;5038293;28;20637;-62
2023/10/23 09:28:50;;;;;;;0.70;0.70;;;;;7.70;95642.00;;;;5057244;28;20228;-62
2023/10/23 09:31:17;;;;;;;0.60;0.60;;;;;7.90;95630.00;;;;5055068;28;20230;-61
2023/10/23 09:33:45;;;;;;;0.77;0.77;;;;;8.00;95630.00;;;;5054776;28;20211;-62
2023/10/23 09:36:14;;;;;;;0.97;0.97;;;;;8.00;95633.00;;;;5054800;28;20196;-61
2023/10/23 09:38:43;;;;;;;1.07;1.07;;;;;8.00;95635.00;;;;5054973;28;20195;-61
2023/10/23 09:41:11;;;;;;;0.83;0.83;;;;;8.20;95624.00;;;;5055085;28;20197;-61
2023/10/23 09:43:46;;;;;;;0.70;0.70;;;;;8.30;95630.00;;;;5036819;28;20210;-61
2023/10/23 09:46:15;;;;;;;0.97;0.97;;;;;8.40;95620.00;;;;5055235;28;20537;-62
2023/10/23 09:48:43;;;;;;;1.20;1.10;;;;;8.50;95616.00;;;;5054430;28;20226;-61
2023/10/23 09:51:14;;;;;;;0.70;0.70;;;;;8.60;95618.00;;;;5037415;28;20200;-62
2023/10/23 09:53:47;;;;;;;1.13;1.13;;;;;8.80;95619.00;;;;5038587;28;20253;-60
2023/10/23 09:56:21;;;;;;;0.60;0.60;;;;;8.80;95618.00;;;;5037596;28;20200;-61
2023/10/23 09:58:54;;;;;;;0.80;0.80;;;;;8.70;95614.00;;;;5035504;28;20200;-60
2023/10/23 10:01:28;;;;;;;1.00;1.00;;;;;8.80;95614.00;;;;5054958;28;20325;-60
2023/10/23 10:04:03;;;;;;;0.90;0.90;;;;;8.90;95614.00;;;;5053572;28;20192;-60
2023/10/23 10:06:33;;;;;;;1.43;1.33;;;;;8.90;95610.00;;;;5053723;28;20242;-60
2023/10/23 10:09:01;;;;;;;0.90;0.90;;;;;8.90;95617.00;;;;5053623;28;20226;-59
2023/10/23 10:11:29;;;;;;;0.70;0.70;;;;;9.00;95617.00;;;;5053457;28;20220;-59
2023/10/23 10:13:57;;;;;;;2.53;1.67;;;;;9.10;95612.00;;;;5037156;28;20226;-59
2023/10/23 10:16:26;;;;;;;0.83;0.83;;;;;9.10;95607.00;;;;5037637;28;20204;-60
2023/10/23 10:18:54;;;;;;;1.00;1.00;;;;;9.20;95607.00;;;;5054587;28;20195;-60
2023/10/23 10:21:24;;;;;;;0.90;0.90;;;;;9.00;95603.00;;;;5053667;28;20215;-59
2023/10/23 10:23:53;;;;;;;1.00;1.00;;;;;9.10;95597.00;;;;5050656;28;20199;-59
2023/10/23 10:26:22;;;;;;;1.13;1.03;;;;;8.90;95591.00;;;;5048376;28;20250;-60
2023/10/23 10:28:53;;;;;;;0.93;0.93;;;;;9.00;95598.00;;;;5052014;28;20603;-59
2023/10/23 10:31:22;;;;;;;0.77;0.77;;;;;9.20;95592.00;;;;5049173;28;20223;-60
2023/10/23 10:33:54;;;;;;;0.90;0.90;;;;;9.40;95594.00;;;;5053696;28;20202;-60
2023/10/23 10:36:26;;;;;;;0.70;0.70;;;;;9.50;95588.00;;;;5055047;28;20192;-60
2023/10/23 10:38:54;;;;;;;0.70;0.70;;;;;9.50;95587.00;;;;5055568;28;20191;-60
2023/10/23 10:41:21;;;;;;;0.80;0.80;;;;;9.60;95572.00;;;;5054077;28;20302;-60
2023/10/23 10:43:53;;;;;;;0.80;0.80;;;;;9.70;95570.00;;;;5055871;28;20195;-60
2023/10/23 10:46:21;;;;;;;0.90;0.90;;;;;9.60;95566.00;;;;5054176;28;20655;-60
2023/10/23 10:48:52;;;;;;;0.70;0.70;;;;;9.50;95559.00;;;;5054177;28;20270;-61
2023/10/23 10:51:22;;;;;;;0.70;0.70;;;;;9.50;95548.00;;;;5055122;28;20800;-61
2023/10/23 10:53:55;;;;;;;0.90;0.90;;;;;9.50;95552.00;;;;5053749;28;20196;-60
2023/10/23 10:56:22;;;;;;;0.93;0.93;;;;;9.40;95548.00;;;;5053198;28;20671;-60
2023/10/23 10:58:49;;;;;;;1.43;1.30;;;;;9.40;95547.00;;;;5053848;28;20197;-62
2023/10/23 11:01:21;;;;;;;4.23;1.33;;;;;9.40;95532.00;;;;5056335;28;20212;-62
2023/10/23 11:03:49;;;;;;;0.60;0.60;;;;;9.50;95529.00;;;;5051959;28;20196;-63
2023/10/23 11:06:18;;;;;;;1.23;1.23;;;;;9.70;95526.00;;;;5057881;28;20207;-65
2023/10/23 11:08:47;;;;;;;1.47;1.37;;;;;9.80;95511.00;;;;5050249;28;20224;-64
2023/10/23 11:11:15;;;;;;;2.00;1.13;;;;;10.00;95502.00;;;;5055707;28;20218;-64
2023/10/23 11:13:44;;;;;;;1.20;1.20;;;;;10.20;95496.00;;;;5053318;28;20242;-65
2023/10/23 11:16:12;;;;;;;2.33;2.23;;;;;10.40;95499.00;;;;5035785;28;20211;-64
2023/10/23 11:18:40;;;;;;;0.90;0.90;;;;;10.30;95496.00;;;;5052518;28;20196;-64
2023/10/23 11:21:09;;;;;;;1.20;1.10;;;;;10.40;95489.00;;;;5052745;28;20228;-63
2023/10/23 11:23:38;;;;;;;1.40;1.30;;;;;10.40;95492.00;;;;5051975;28;20283;-60
2023/10/23 11:26:06;;;;;;;1.00;1.00;;;;;10.30;95474.00;;;;5050155;28;20269;-63
2023/10/23 11:28:34;;;;;;;0.87;0.87;;;;;10.30;95478.00;;;;5050002;28;20294;-61
2023/10/23 11:31:01;;;;;;;0.60;0.60;;;;;10.30;95470.00;;;;5050255;28;20203;-60
2023/10/23 11:33:29;;;;;;;1.00;1.00;;;;;10.30;95462.00;;;;5053021;28;20203;-61
2023/10/23 11:35:56;;;;;;;1.50;1.40;;;;;10.30;95465.00;;;;5034387;28;20200;-61
2023/10/23 11:38:25;;;;;;;0.70;0.70;;;;;10.30;95468.00;;;;5051969;28;20253;-61
2023/10/23 11:40:54;;;;;;;0.70;0.70;;;;;10.20;95471.00;;;;5052425;28;20275;-61
2023/10/23 11:43:21;;;;;;;1.07;1.07;;;;;10.20;95465.00;;;;5052596;28;20207;-60
2023/10/23 11:45:49;;;;;;;1.03;1.03;;;;;10.10;95468.00;;;;5053157;28;20225;-60
2023/10/23 11:48:17;;;;;;;2.33;1.57;;;;;10.10;95471.00;;;;5055383;28;20303;-61
2023/10/23 11:50:45;;;;;;;0.63;0.63;;;;;10.10;95464.00;;;;5055233;28;20575;-61
2023/10/23 11:53:17;;;;;;;1.27;1.27;;;;;10.10;95468.00;;;;5054824;28;20220;-60
2023/10/23 11:55:46;;;;;;;0.67;0.67;;;;;10.10;95463.00;;;;5034763;28;20192;-60
2023/10/23 11:58:15;;;;;;;1.57;1.47;;;;;10.20;95470.00;;;;5052253;28;20207;-60
2023/10/23 12:00:42;;;;;;;0.83;0.83;;;;;10.30;95472.00;;;;5052447;28;20262;-60
2023/10/23 12:03:10;;;;;;;1.53;1.43;;;;;10.30;95471.00;;;;5052718;28;20212;-60
2023/10/23 12:05:37;;;;;;;0.60;0.60;;;;;10.30;95476.00;;;;5053170;28;20200;-60
2023/10/23 12:08:05;;;;;;;0.70;0.70;;;;;10.40;95486.00;;;;5052679;28;20216;-60
2023/10/23 12:10:33;;;;;;;1.00;1.00;;;;;10.30;95482.00;;;;5052363;28;20275;-60
2023/10/23 12:13:02;;;;;;;0.70;0.70;;;;;10.40;95482.00;;;;5051458;28;20285;-61
2023/10/23 12:15:31;;;;;;;0.60;0.60;;;;;10.40;95476.00;;;;5051191;28;20204;-60
2023/10/23 12:18:03;;;;;;;0.80;0.80;;;;;10.50;95460.00;;;;5051400;28;20197;-61
2023/10/23 12:20:31;;;;;;;1.10;1.10;;;;;10.50;95473.00;;;;5050727;28;20195;-61
2023/10/23 12:22:59;;;;;;;1.43;1.33;;;;;10.50;95466.00;;;;5050954;28;20227;-61
2023/10/23 12:25:26;;;;;;;1.10;1.10;;;;;10.50;95449.00;;;;5053929;28;20201;-60
2023/10/23 12:27:54;;;;;;;1.00;1.00;;;;;10.60;95443.00;;;;5050637;28;20632;-60
2023/10/23 12:30:21;;;;;;;2.37;2.23;;;;;10.60;95433.00;;;;5051456;28;20196;-60